Bienvenue à Aimargues au coeur de la petite Camargue






Pas de vigilance météorologique particulière.    Il n'y a aucun avertissement

Rapports METAR proximité

   
EBBR - Brussels International Airport, Belgium
Distance: O 14 km
Mise à jour: 16-10-2018 12:50
Claires  
Claires  
   Vent: SE 7.4 km/h
Vent: SE 7.4 km/h
Température: 23°C
Point de rosée: 11°C
Humidité: 47%
Baromètre: 1018 hPa
visibilité: Plus 10 km
Détails des nuages: Claires
EBBR 161050Z 14004KT 110V170 CAVOK 23/11 Q1018 NOSIG
EBBE - Beauvechain (Bevekom), Belgium
Distance: SSE 17 km
Mise à jour: 16-10-2018 12:25
Partiellement nuageux  
Partiellement nuageux  
   Vent: varie 3.7 km/h
Vent: varie 3.7 km/h
Température: 22°C
Point de rosée: 9°C
Humidité: 44%
Baromètre: 1019 hPa
Nuages: Partiellement nuageux
visibilité: Plus 10 km
Détails des nuages: Partiellement nuageux 24000 ft
EBBE 161025Z VRB02KT 9999 SCT240 22/09 Q1019 BLU BLU
EBDT - Schaffen, Belgium
Distance: ENE 29 km
Mise à jour: 16-10-2018 12:25
Partiellement nuageux  
Partiellement nuageux  
   Vent: SSE 5.6 km/h
Vent: SSE 5.6 km/h
Température: 22°C
Point de rosée: 10°C
Humidité: 47%
Baromètre: 1018 hPa
Nuages: Partiellement nuageux
visibilité: Plus 10 km
Détails des nuages: Peu de nuages 13000 ft,
Partiellement nuageux 21000 ft
EBDT 161025Z 16003KT 9999 FEW130 SCT210 22/10 Q1018 BLU BLU
EBAW - Antwerp/Deurne, Belgium
Distance: NNO 38 km
Mise à jour: 16-10-2018 12:50
Claires  
Claires  
   Vent: varie 3.7 km/h
Vent: varie 3.7 km/h
Température: 21°C
Point de rosée: 12°C
Humidité: 57%
Baromètre: 1018 hPa
visibilité: Plus 10 km
Détails des nuages: Claires
EBAW 161050Z VRB02KT CAVOK 21/12 Q1018 NOSIG
EBCI - Charleroi/Gosselies, Belgium
Distance: SSO 51 km
Mise à jour: 16-10-2018 12:50
Claires  
Claires  
   Vent: SE 9.3 km/h
Vent: SE 9.3 km/h
Température: 22°C
Point de rosée: 9°C
Humidité: 44%
Baromètre: 1019 hPa
visibilité: Plus 10 km
Détails des nuages: Claires
EBCI 161050Z 13005KT 090V150 CAVOK 22/09 Q1019 NOSIG
EBLG - Bierset/Liege, Belgium
Distance: ESE 60 km
Mise à jour: 16-10-2018 12:50
Claires  
Claires  
   Vent: SE 5.6 km/h
Vent: SE 5.6 km/h
Température: 21°C
Point de rosée: 10°C
Humidité: 50%
Baromètre: 1019 hPa
visibilité: Plus 10 km
Détails des nuages: Claires
EBLG 161050Z 13003KT 010V170 CAVOK 21/10 Q1019 NOSIG

Script développé par  Saratoga-weather.org Adapté pour le modèle par  Weerstation Leuven

Vous trouverez notre info météo Également à:

Weather Underground

AWEKAS

Citizen Weather Observer Program (CWOP)